AirNav   Air Wisconsin pilot careers
 
 593 users online  

48X Airport Manatee
Palmetto, Florida, USA

GOING TO PALMETTO?


FAA INFORMATION EFFECTIVE 09 NOVEMBER 2017

Location

FAA Identifier: 48X
Lat/Long: 27-38-33.3500N / 082-31-11.7000W
27-38.555833N / 082-31.195000W
27.6425972 / -82.5199167
(estimated)
Elevation: 27 ft. / 8 m (estimated)
Variation: 02W (1985)
From city: 7 miles NE of PALMETTO, FL
Time zone: UTC -5 (UTC -4 during Daylight Saving Time)
Zip code: 34221

Airport Operations

Airport use: Open to the public
Activation date: 05/1977
Control tower: no
ARTCC: MIAMI CENTER
FSS: SAINT PETERSBURG FLIGHT SERVICE STATION
NOTAMs facility: PIE (NOTAM-D service available)
Attendance: MON-FRI 0900-1700, ALL SAT 0900-1200
CALL AMGR FOR AFTER HRS SVC AND CHECK RY CONDITIONS 941-722-9296.
Wind indicator: yes
Segmented circle: yes
Lights: LIRL RWY 7/25 AVBL BY PHONE REQUEST 941-722-9296.

Airport Communications

CTAF: 122.9
WX ASOS at SPG (9 nm NW): 118.875 (727-821-4334)
WX ASOS at SRQ (15 nm S): 124.375 (941-359-0117)
WX AWOS-3 at TPF (17 nm N): 118.925 (813-251-6824)
WX ASOS at PIE (18 nm NW): PHONE 727-531-3456
WX ASOS at TPA (20 nm N): PHONE 813-873-7228

Nearby radio navigation aids

VOR radial/distance  VOR name  Freq  Var
SRQr014/14.3SARASOTA VOR/DME117.0005W
PIEr156/18.1ST PETERSBURG VORTAC116.4005W
LALr231/33.9LAKELAND VORTAC116.0001E

Airport Services

Fuel available: 100LL
FUEL AVBL DAILY SR-SS.
Parking: hangars and tiedowns

Runway Information

Runway 7/25

Dimensions: 3120 x 100 ft. / 951 x 30 m
Surface: turf, in good condition
Runway edge lights: low intensity
Runway edge markings: RY 07 AND 25 THLDS MARKED BY THREE GREEN LGTS AND ONE BUCKET ON EACH SIDE OF RY.
RUNWAY 7  RUNWAY 25
Latitude: 27-38.496667N27-38.615000N
Longitude: 082-31.476667W082-30.913333W
Traffic pattern: rightleft
Obstructions: 32 ft. trees, 729 ft. from runway, 110 ft. left of centerline, 23:1 slope to clear
8 FT TREES 90-100 FT S OF RY CNTRLN FULL LENGTH. ACFT HANGARS 135 FT L OF CNTRLN FIRST HALF OF RY 07. ACFT PARKED 100 FT R OF CNTRLN FIRST 1/3 OF RY 25.
15 ft. brush, 364 ft. from runway, 80 ft. right of centerline, 25:1 slope to clear

Airport Ownership and Management from official FAA records

Ownership: Privately-owned
Owner: REEDER FARMS LLC
14108 U.S. HIGHWAY 41 NORTH
PALMETTO, FL 34221
Phone 941-722-9296
CONTACT PERSON: TOM REEDER: 941-722-9296
Manager: TOM REEDER
14108 U.S. HIGHWAY 41 NORTH
PALMETTO, FL 34221
Phone 941-722-9296
AIRPORT PHYSICAL ADDRESS: 14108 U.S. HIGHWAY 41 NORTH; FAX: 941-721-9067

Airport Operational Statistics

Aircraft based on the field: 55
Single engine airplanes: 39
Ultralights: 16
    
Aircraft operations: avg 136/week *
70% local general aviation
28% transient general aviation
1% military
* for 12-month period ending 04 November 2015

Additional Remarks

BIRDS, WILDLIFE AND DEER ON AND INVOF ARPT.
RY 07/25 FIRST 500 FT EAST END SOFT AFTER HEAVY SEASONAL RAINS.
RY 7/25 SPRINKLERS ACTIVE MON-THU 2000-0500.
AIRPORT CLSD TO TURBINE HELI OPS INCLUDING HOVER AND PRACTICE MANUEVERS AT NE FIELD ADJ TO RWY 7/25 EXC BELL JET RANGERS, EMERG. CALL IN ADVANCE 941-722-9296.

Instrument Procedures

There are no published instrument procedures at 48X.

Some nearby airports with instrument procedures:

KSPG - Albert Whitted Airport (9 nm NW)
KMCF - MacDill Air Force Base (12 nm N)
KSRQ - Sarasota/Bradenton International Airport (15 nm S)
KTPF - Peter O Knight Airport (17 nm N)
KPIE - St Pete-Clearwater International Airport (18 nm NW)
KTPA - Tampa International Airport (20 nm N)
 
Loc | Ops | Rwys | IFR | FBO | Links
Com | Nav | Svcs | Stats | Notes


 
Area around 48X (Airport Manatee)
 
Road maps at: MapQuest Bing Google
 
Aerial photo
WARNING: Photo may not be current or correct
Aerial photo of 48X (Airport Manatee)
Photo courtesy of PhotosFromTheAir.com
Photo taken 26-Apr-2012
looking northeast.

Do you have a better or more recent aerial photo of Airport Manatee that you would like to share? If so, please send us your photo.

 
Sectional chart

 
Airport distance calculator
Flying to Airport Manatee? Find the distance to fly.

From to 48X

Sunrise and sunset
Times for 23-Nov-2017
 Local
(UTC-5)
 Zulu
(UTC)
Morning civil twilight06:3311:33
Sunrise06:5811:58
Sunset17:3522:35
Evening civil twilight18:0023:00

Current date and time
Zulu (UTC)  24-Nov-2017 00:40:32
Local (UTC-5)  23-Nov-2017 19:40:32
 
METAR
KSPG 
10nm NW 
232353Z 32005KT 10SM SCT012 22/19 A2977 RMK AO2 SLP080 60000 T02170194 10244 20217 51008
KMCF 
12nm N 
232356Z 00000KT 10SM CLR 23/20 A2979 RMK AO2A SLP086 ALSTG ESTMD P0000 60000 51003 $
KSRQ 
15nm S 
232353Z 30010KT 10SM FEW009 BKN034 22/20 A2979 RMK AO2 SLP088 60000 T02170200 10239 20217 53012
KTPF 
17nm N 
240015Z AUTO 00000KT 10SM A2979 RMK AO2
KPIE 
19nm NW 
240022Z 29005KT 10SM SCT006 BKN012 21/19 A2980 RMK AO2 T02060194
KTPA 
19nm N 
232353Z 21003KT 10SM FEW010 FEW035 OVC150 22/20 A2979 RMK AO2 SLP087 60000 T02170200 10256 20217 51008
TAF
KMCF 
12nm N 
232220Z 2322/2423 17012G18KT 9999 BKN015 QNH2973INS BECMG 2323/2324 01009KT 9999 BKN020 OVC040 QNH2980INS BECMG 2408/2409 VRB06KT 8000 BR BKN015 OVC030 QNH2982INS BECMG 2415/2416 36009KT 9999 NSW BKN025 BKN040 QNH2993INS TX22/2322Z TN17/2409Z
KSRQ 
15nm S 
232157Z 2322/2418 22010KT P6SM VCSH SCT025 BKN150 FM240000 27006KT P6SM VCSH SCT020 BKN100 FM240500 05006KT P6SM VCSH BKN020 BKN100 FM240800 05006KT P6SM SCT005 BKN010 FM241500 04007KT P6SM SCT010 BKN020
KPIE 
19nm NW 
232149Z 2322/2418 25009KT P6SM VCSH BKN025 OVC050 FM232300 28008KT P6SM VCSH BKN020 OVC060 FM240200 02007KT P6SM VCSH BKN015 OVC040 FM240500 02006KT P6SM SCT005 BKN010 FM241500 03008KT P6SM SCT015 BKN025
KTPA 
19nm N 
232147Z 2322/2424 23011KT P6SM VCSH BKN030 OVC050 FM232300 28008KT P6SM VCSH BKN025 OVC060 FM240200 02006KT P6SM VCSH BKN020 OVC040 FM240500 02006KT P6SM SCT005 BKN010 FM241500 03007KT P6SM SCT015 BKN025 FM241900 36007KT P6SM SCT025 BKN040
NOTAMs
Click for the latest NOTAMs
NOTAMs are issued by the DoD/FAA and will open in a separate window not controlled by AirNav.

 

 
 

FBO, Fuel Providers, and Aircraft Ground Support

  
 Business Name 
 
 Contact 
 
 Services / Description 
 
Fuel Prices
 
Comments
  
Airport Manatee 941-722-9296
[web site]
[email]
Airport management, Aviation fuel, Aircraft parking (ramp or tiedown), Hangars, Hangar leasing / sales, Passenger terminal and lounge, Flight training, ...

More info about Airport Manatee
independent
100LL
SS $3.99 
 Updated 09-Nov-2017
 
   7 read write
SS=Self service
Update Fuel Prices
 

Would you like to see your business listed on this page?

 If your business provides an interesting product or service to pilots, flight crews, aircraft, or users of the Airport Manatee, you should consider listing it here.  To start the listing process, click on the button below
 
Add a business
 

Other Pages about Airport Manatee

airportmanatee48x.com
 
Update a link
 
Copyright © AirNav, LLC. All rights reserved. Privacy Policy  Contact